De Soto, Georgia
Current Conditions -  °F | °C
As of 11:15 PM on Tuesday 25 Nov 2014 (Local Time) from KACJ Reporting Station
Light Rain Light Rain  
Wind Chill: 41°   Ceiling: 4300
Heat Index: 45°   Visibility: 10mi
Dew Point: 45°   Wind: 7mph
Humidity: 100%   Direction: 310°NW
Pressure: 30.07"   Gusts: NA
Location:  31.95°N, 84.06°W
Report Text: KACJ 260415Z AUTO 31006KT 10SM -RA OVC043 07/07 A3007 RMK AO2
Loading
Personal Weather Stations






























Interactive Weather Map New forecast layout! Learn more

10-Day Weather Forecast

Advertisements
Track Severe Weather on mobile